createdAt,value
2022-08-25T00:00:23.128Z,99028.78
2022-08-25T00:02:55.660Z,99032.25
2022-08-25T00:05:28.993Z,99052.28
2022-08-25T00:08:06.327Z,99032.59
2022-08-25T00:10:38.870Z,99035.69
2022-08-25T00:13:10.649Z,99032.91
2022-08-25T00:15:41.821Z,99061.94
2022-08-25T00:18:19.760Z,99051.69
2022-08-25T00:20:48.983Z,99048.22
2022-08-25T00:23:17.855Z,99024.22
2022-08-25T00:25:47.726Z,99030.88
2022-08-25T00:28:16.981Z,99047.34
2022-08-25T00:30:45.845Z,99032.34
2022-08-25T00:33:14.839Z,99029.22
2022-08-25T00:35:46.379Z,99020.94
2022-08-25T00:38:16.756Z,99019.00
2022-08-25T00:41:05.944Z,99013.91
2022-08-25T00:43:46.101Z,99022.19
2022-08-25T00:46:19.572Z,99010.03
2022-08-25T00:48:52.324Z,99023.78
2022-08-25T00:51:27.350Z,99014.75
2022-08-25T00:53:56.208Z,99021.78
2022-08-25T00:56:31.553Z,98999.78
2022-08-25T00:59:01.135Z,98999.38
2022-08-25T01:01:32.619Z,99016.25
2022-08-25T01:04:04.274Z,99000.53
2022-08-25T01:06:38.516Z,99015.50
2022-08-25T01:09:08.018Z,99003.25
2022-08-25T01:11:38.255Z,99001.72
2022-08-25T01:14:07.290Z,99005.19
2022-08-25T01:16:36.134Z,99024.41
2022-08-25T01:19:06.071Z,99002.78
2022-08-25T01:21:42.927Z,99000.81
2022-08-25T01:24:17.399Z,99011.41
2022-08-25T01:26:45.693Z,99014.59
2022-08-25T01:29:22.764Z,99006.72
2022-08-25T01:31:54.408Z,99016.19
2022-08-25T01:34:23.258Z,99011.91
2022-08-25T01:36:53.128Z,98996.16
2022-08-25T01:39:24.286Z,98996.16
2022-08-25T01:42:14.773Z,98997.75
2022-08-25T01:44:45.489Z,99002.47
2022-08-25T01:47:17.881Z,99026.03
2022-08-25T01:49:46.388Z,99007.56
2022-08-25T01:52:21.325Z,99016.22
2022-08-25T01:54:53.223Z,99019.34
2022-08-25T01:57:22.196Z,99027.59
2022-08-25T01:59:50.734Z,99023.69
2022-08-25T02:02:19.111Z,99005.22
2022-08-25T02:04:49.513Z,99001.69
2022-08-25T02:07:21.740Z,99015.44
2022-08-25T02:09:49.974Z,99004.78
2022-08-25T02:12:21.469Z,99005.97
2022-08-25T02:14:49.927Z,99000.47
2022-08-25T02:17:21.281Z,99019.72
2022-08-25T02:19:52.499Z,99000.03
2022-08-25T02:22:22.320Z,99000.81
2022-08-25T02:24:50.759Z,99007.09
2022-08-25T02:27:19.141Z,99019.63
2022-08-25T02:29:47.544Z,99009.72
2022-08-25T02:32:15.874Z,99001.81
2022-08-25T02:34:44.392Z,99015.19
2022-08-25T02:37:13.017Z,99006.53
2022-08-25T02:39:42.829Z,99008.56
2022-08-25T02:42:11.142Z,99010.13
2022-08-25T02:44:39.627Z,99026.13
2022-08-25T02:47:08.040Z,99002.81
2022-08-25T02:49:39.047Z,99005.06
2022-08-25T02:52:07.662Z,99001.44
2022-08-25T02:54:38.915Z,99021.84
2022-08-25T02:57:08.717Z,99011.53
2022-08-25T02:59:37.303Z,99005.25
2022-08-25T03:02:08.659Z,99017.84
2022-08-25T03:04:37.871Z,99017.44
2022-08-25T03:07:06.519Z,99014.31
2022-08-25T03:09:35.025Z,99022.19
2022-08-25T03:12:09.457Z,99008.88
2022-08-25T03:14:37.783Z,99008.47
2022-08-25T03:17:08.692Z,99033.59
2022-08-25T03:19:37.446Z,99033.19
2022-08-25T03:22:05.982Z,99017.03
2022-08-25T03:24:37.441Z,99022.91
2022-08-25T03:27:05.584Z,99037.09
2022-08-25T03:29:36.100Z,99031.53
2022-08-25T03:32:07.835Z,99024.47
2022-08-25T03:34:36.364Z,99028.38
2022-08-25T03:37:06.269Z,99025.25
2022-08-25T03:39:38.646Z,99020.59
2022-08-25T03:42:07.129Z,99015.50
2022-08-25T03:44:36.839Z,99033.25
2022-08-25T03:47:05.283Z,99021.06
2022-08-25T03:49:33.705Z,99025.44
2022-08-25T03:52:03.370Z,99035.38
2022-08-25T03:54:34.680Z,99049.13
2022-08-25T03:57:04.192Z,99030.28
2022-08-25T03:59:32.463Z,99032.72
2022-08-25T04:02:02.970Z,99039.91
2022-08-25T04:04:31.349Z,99053.34
2022-08-25T04:06:59.995Z,99047.88
2022-08-25T04:09:36.755Z,99040.09
2022-08-25T04:12:05.792Z,99040.50
2022-08-25T04:14:39.888Z,99026.72
2022-08-25T04:17:12.536Z,99056.19
2022-08-25T04:19:43.593Z,99033.78
2022-08-25T04:22:12.002Z,99029.84
2022-08-25T04:24:44.677Z,99050.69
2022-08-25T04:27:13.237Z,99022.84
2022-08-25T04:29:41.678Z,99049.63
2022-08-25T04:32:11.653Z,99033.16
2022-08-25T04:34:39.996Z,99044.28
2022-08-25T04:37:08.779Z,99030.97
2022-08-25T04:39:37.682Z,99034.94
2022-08-25T04:42:06.762Z,99030.69
2022-08-25T04:44:35.539Z,99031.19
2022-08-25T04:47:04.237Z,99036.72
2022-08-25T04:49:37.327Z,99033.59
2022-08-25T04:52:06.171Z,99052.53
2022-08-25T04:54:45.168Z,99034.44
2022-08-25T04:57:13.737Z,99039.19
2022-08-25T04:59:42.197Z,99046.34
2022-08-25T05:02:13.405Z,99047.13
2022-08-25T05:04:43.220Z,99067.97
2022-08-25T05:07:14.202Z,99057.75
2022-08-25T05:09:42.804Z,99050.63
2022-08-25T05:12:11.575Z,99066.00
2022-08-25T05:14:40.871Z,99051.47
2022-08-25T05:17:11.114Z,99055.84
2022-08-25T05:19:39.424Z,99052.69
2022-08-25T05:22:12.482Z,99062.19
2022-08-25T05:24:44.568Z,99067.75
2022-08-25T05:27:15.470Z,99048.09
2022-08-25T05:29:43.829Z,99047.69
2022-08-25T05:32:12.355Z,99060.69
2022-08-25T05:34:40.751Z,99062.66
2022-08-25T05:37:12.235Z,99053.22
2022-08-25T05:39:43.453Z,99047.72
2022-08-25T05:42:11.862Z,99041.81
2022-08-25T05:44:40.154Z,99057.19
2022-08-25T05:47:08.712Z,99046.22
2022-08-25T05:49:37.024Z,99046.63
2022-08-25T05:52:08.727Z,99041.56
2022-08-25T05:54:39.129Z,99047.47
2022-08-25T05:57:07.740Z,99036.09
2022-08-25T05:59:38.651Z,99050.22
2022-08-25T06:02:24.731Z,99036.47
2022-08-25T06:04:53.794Z,99041.19
2022-08-25T06:07:24.928Z,99042.34
2022-08-25T06:09:56.980Z,99042.31
2022-08-25T06:12:28.078Z,99036.41
2022-08-25T06:14:56.375Z,99028.88
2022-08-25T06:17:24.768Z,99035.91
2022-08-25T06:19:55.009Z,99027.63
2022-08-25T06:22:26.629Z,99026.41
2022-08-25T06:24:59.261Z,99025.25
2022-08-25T06:27:27.714Z,99041.81
2022-08-25T06:29:56.170Z,99031.59
2022-08-25T06:32:28.708Z,99037.50
2022-08-25T06:34:58.882Z,99040.25
2022-08-25T06:37:27.348Z,99043.38
2022-08-25T06:40:00.058Z,99036.97
2022-08-25T06:42:29.197Z,99042.75
2022-08-25T06:44:57.556Z,99040.25
2022-08-25T06:47:28.849Z,99033.06
2022-08-25T06:50:03.068Z,99038.03
2022-08-25T06:52:34.521Z,99044.47
2022-08-25T06:55:04.543Z,99049.03
2022-08-25T06:57:35.890Z,99039.34
2022-08-25T07:00:05.865Z,99040.13
2022-08-25T07:02:38.661Z,99028.59
2022-08-25T07:05:08.218Z,99027.75
2022-08-25T07:07:43.563Z,99026.09
2022-08-25T07:10:19.546Z,99037.44
2022-08-25T07:12:47.830Z,99034.31
2022-08-25T07:15:20.449Z,99020.59
2022-08-25T07:17:49.985Z,99026.06
2022-08-25T07:20:21.168Z,99022.84
2022-08-25T07:22:49.838Z,99018.00
2022-08-25T07:25:19.575Z,99017.50
2022-08-25T07:27:48.023Z,99003.09
2022-08-25T07:30:19.251Z,99019.50
2022-08-25T07:32:55.360Z,98989.69
2022-08-25T07:35:26.146Z,98995.31
2022-08-25T07:37:57.231Z,98985.31
2022-08-25T07:40:30.067Z,98988.75
2022-08-25T07:43:03.660Z,98991.63
2022-08-25T07:45:35.632Z,98979.69
2022-08-25T07:48:06.760Z,99008.44
2022-08-25T07:50:36.162Z,98985.47
2022-08-25T07:53:04.881Z,98982.59
2022-08-25T07:55:36.657Z,98998.00
2022-08-25T07:58:08.537Z,98989.91
2022-08-25T08:00:38.580Z,99001.22
2022-08-25T08:03:12.936Z,99001.00
2022-08-25T08:05:52.745Z,98984.56
2022-08-25T08:08:21.007Z,98999.84
2022-08-25T08:11:04.258Z,98986.88
2022-08-25T08:13:36.839Z,98983.44
2022-08-25T08:16:10.945Z,98977.31
2022-08-25T08:18:42.673Z,98971.69
2022-08-25T08:21:19.327Z,98987.22
2022-08-25T08:23:49.243Z,98986.91
2022-08-25T08:26:22.512Z,98974.97
2022-08-25T08:29:05.598Z,98977.78
2022-08-25T08:31:37.155Z,98983.69
2022-08-25T08:34:06.513Z,98974.09
2022-08-25T08:36:35.118Z,98971.75
2022-08-25T08:39:04.749Z,98964.81
2022-08-25T08:42:12.131Z,98955.97
2022-08-25T08:44:51.592Z,98967.31
2022-08-25T08:47:30.065Z,98961.50
2022-08-25T08:50:07.686Z,98966.25
2022-08-25T08:52:44.269Z,98950.72
2022-08-25T08:55:21.498Z,98952.81
2022-08-25T08:57:55.830Z,98943.88
2022-08-25T09:00:27.925Z,98954.16
2022-08-25T09:03:04.520Z,98952.03
2022-08-25T09:05:47.150Z,98932.25
2022-08-25T09:08:20.210Z,98939.06
2022-08-25T09:11:05.367Z,98936.31
2022-08-25T09:14:13.140Z,98945.13
2022-08-25T09:16:59.795Z,98939.03
2022-08-25T09:19:59.798Z,98941.25
2022-08-25T09:22:41.652Z,98944.16
2022-08-25T09:25:22.109Z,98933.16
2022-08-25T09:28:07.584Z,98920.56
2022-08-25T09:30:47.171Z,98916.25
2022-08-25T09:33:22.584Z,98923.16
2022-08-25T09:35:53.696Z,98912.03
2022-08-25T09:38:22.534Z,98896.13
2022-08-25T09:41:00.746Z,98906.03
2022-08-25T09:43:33.464Z,98904.91
2022-08-25T09:46:46.538Z,98913.25
2022-08-25T09:49:18.916Z,98903.53
2022-08-25T09:51:53.383Z,98907.72
2022-08-25T09:54:25.566Z,98893.50
2022-08-25T09:57:09.339Z,98897.47
2022-08-25T09:59:38.636Z,98896.44
2022-08-25T10:02:23.800Z,98887.75
2022-08-25T10:04:53.590Z,98886.28
2022-08-25T10:07:28.561Z,98878.13
2022-08-25T10:10:02.233Z,98874.03
2022-08-25T10:12:42.669Z,98870.00
2022-08-25T10:15:30.080Z,98876.69
2022-08-25T10:18:13.841Z,98863.81
2022-08-25T10:20:45.090Z,98861.06
2022-08-25T10:23:15.611Z,98851.19
2022-08-25T10:25:59.127Z,98846.81
2022-08-25T10:28:38.584Z,98845.66
2022-08-25T10:31:14.969Z,98857.81
2022-08-25T10:33:55.838Z,98843.59
2022-08-25T10:36:41.442Z,98842.91
2022-08-25T10:39:34.283Z,98830.41
2022-08-25T10:42:25.845Z,98833.22
2022-08-25T10:45:26.474Z,98818.59
2022-08-25T10:48:16.896Z,98827.97
2022-08-25T10:50:54.377Z,98829.44
2022-08-25T10:53:36.783Z,98813.31
2022-08-25T10:56:12.584Z,98819.72
2022-08-25T10:59:07.926Z,98822.34
2022-08-25T11:01:53.444Z,98820.97
2022-08-25T11:04:26.354Z,98815.44
2022-08-25T11:07:00.835Z,98809.81
2022-08-25T11:09:36.550Z,98821.13
2022-08-25T11:12:11.531Z,98810.75
2022-08-25T11:14:45.167Z,98805.47
2022-08-25T11:17:21.474Z,98811.97
2022-08-25T11:19:57.032Z,98805.41
2022-08-25T11:22:37.574Z,98797.91
2022-08-25T11:25:16.125Z,98789.53
2022-08-25T11:27:54.504Z,98779.03
2022-08-25T11:30:26.398Z,98788.03
2022-08-25T11:33:01.534Z,98793.84
2022-08-25T11:35:35.699Z,98780.13
2022-08-25T11:38:27.642Z,98789.66
2022-08-25T11:41:21.438Z,98773.84
2022-08-25T11:44:11.245Z,98769.66
2022-08-25T11:46:54.011Z,98770.28
2022-08-25T11:49:42.375Z,98779.78
2022-08-25T11:52:46.124Z,98777.31
2022-08-25T11:55:22.928Z,98775.97
2022-08-25T11:58:14.233Z,98770.75
2022-08-25T12:00:48.180Z,98765.91
2022-08-25T12:03:54.975Z,98778.28
2022-08-25T12:06:36.678Z,98769.41
2022-08-25T12:09:22.015Z,98771.81
2022-08-25T12:11:56.220Z,98765.91
2022-08-25T12:14:48.251Z,98769.47
2022-08-25T12:17:38.586Z,98767.56
2022-08-25T12:20:08.348Z,98759.66
2022-08-25T12:22:57.297Z,98760.50
2022-08-25T12:25:45.913Z,98754.16
2022-08-25T12:28:42.214Z,98747.44
2022-08-25T12:31:25.888Z,98744.78
2022-08-25T12:34:12.520Z,98755.44
2022-08-25T12:36:56.325Z,98752.97
2022-08-25T12:39:32.541Z,98744.19
2022-08-25T12:42:05.279Z,98751.84
2022-08-25T12:44:41.725Z,98743.22
2022-08-25T12:47:29.932Z,98739.97
2022-08-25T12:50:33.834Z,98756.16
2022-08-25T12:53:12.497Z,98741.84
2022-08-25T12:55:47.918Z,98740.31
2022-08-25T12:58:18.534Z,98744.66
2022-08-25T13:01:17.468Z,98734.72
2022-08-25T13:04:33.875Z,98739.41
2022-08-25T13:07:23.527Z,98742.41
2022-08-25T13:10:21.807Z,98737.91
2022-08-25T13:12:56.679Z,98733.91
2022-08-25T13:15:37.432Z,98733.56
2022-08-25T13:18:26.580Z,98730.16
2022-08-25T13:21:05.055Z,98735.03
2022-08-25T13:23:37.522Z,98742.38
2022-08-25T13:26:10.804Z,98741.53
2022-08-25T13:28:50.275Z,98739.44
2022-08-25T13:31:25.044Z,98740.06
2022-08-25T13:33:58.741Z,98742.53
2022-08-25T13:36:54.177Z,98742.41
2022-08-25T13:39:53.144Z,98744.88
2022-08-25T13:42:33.886Z,98748.09
2022-08-25T13:45:25.496Z,98734.72
2022-08-25T13:48:23.090Z,98732.97
2022-08-25T13:51:21.654Z,98727.88
2022-08-25T13:54:02.865Z,98728.75
2022-08-25T13:56:41.900Z,98727.75
2022-08-25T13:59:32.160Z,98739.38
2022-08-25T14:02:45.506Z,98727.56
2022-08-25T14:05:54.151Z,98719.44
2022-08-25T14:08:38.031Z,98718.63
2022-08-25T14:11:18.356Z,98715.56
2022-08-25T14:17:38.278Z,98719.72
2022-08-25T14:20:44.878Z,98717.09
2022-08-25T14:23:27.763Z,98708.75
2022-08-25T14:26:00.694Z,98703.47
2022-08-25T14:28:34.348Z,98709.91
2022-08-25T14:31:35.296Z,98705.81
2022-08-25T14:34:37.367Z,98703.22
2022-08-25T14:37:28.087Z,98702.22
2022-08-25T14:39:59.553Z,98715.22
2022-08-25T14:42:45.620Z,98715.25
2022-08-25T14:45:33.848Z,98710.34
2022-08-25T14:48:24.821Z,98708.00
2022-08-25T14:51:18.737Z,98706.53
2022-08-25T14:54:04.446Z,98702.00
2022-08-25T14:57:08.432Z,98704.59
2022-08-25T14:59:43.178Z,98700.66
2022-08-25T15:02:30.579Z,98694.16
2022-08-25T15:05:08.863Z,98705.44
2022-08-25T15:07:58.120Z,98692.66
2022-08-25T15:10:33.650Z,98696.47
2022-08-25T15:13:06.331Z,98693.22
2022-08-25T15:15:52.323Z,98688.34
2022-08-25T15:18:26.109Z,98689.38
2022-08-25T15:20:54.521Z,98686.63
2022-08-25T15:23:25.703Z,98675.41
2022-08-25T15:25:59.580Z,98683.13
2022-08-25T15:28:28.006Z,98684.47
2022-08-25T15:30:56.334Z,98680.38
2022-08-25T15:33:26.978Z,98673.28
2022-08-25T15:35:58.607Z,98668.41
2022-08-25T15:38:26.921Z,98673.91
2022-08-25T15:40:56.205Z,98676.75
2022-08-25T15:43:26.257Z,98667.84
2022-08-25T15:45:54.591Z,98667.44
2022-08-25T15:48:27.162Z,98663.31
2022-08-25T15:50:57.200Z,98656.72
2022-08-25T15:53:29.917Z,98655.03
2022-08-25T15:55:58.857Z,98658.38
2022-08-25T15:58:33.304Z,98655.75
2022-08-25T16:01:01.706Z,98653.66
2022-08-25T16:03:32.020Z,98650.81
2022-08-25T16:06:09.784Z,98647.50
2022-08-25T16:08:44.469Z,98644.34
2022-08-25T16:11:18.889Z,98651.94
2022-08-25T16:13:53.744Z,98634.66
2022-08-25T16:16:29.754Z,98640.16
2022-08-25T16:18:59.767Z,98627.28
2022-08-25T16:21:30.577Z,98636.47
2022-08-25T16:24:05.486Z,98630.03
2022-08-25T16:26:36.852Z,98624.25
2022-08-25T16:29:06.407Z,98636.13
2022-08-25T16:31:35.191Z,98636.34
2022-08-25T16:34:05.563Z,98619.66
2022-08-25T16:36:33.885Z,98630.28
2022-08-25T16:39:02.230Z,98624.94
2022-08-25T16:41:34.359Z,98615.50
2022-08-25T16:44:07.833Z,98632.03
2022-08-25T16:46:40.787Z,98629.00
2022-08-25T16:49:16.938Z,98628.59
2022-08-25T16:51:45.207Z,98635.72
2022-08-25T16:54:36.204Z,98634.34
2022-08-25T16:57:04.532Z,98620.28
2022-08-25T16:59:35.536Z,98626.25
2022-08-25T17:02:06.896Z,98628.75
2022-08-25T17:04:36.745Z,98625.97
2022-08-25T17:07:08.882Z,98619.63
2022-08-25T17:09:37.159Z,98623.72
2022-08-25T17:12:05.738Z,98634.44
2022-08-25T17:14:34.014Z,98625.81
2022-08-25T17:17:02.662Z,98630.28
2022-08-25T17:19:36.614Z,98624.28
2022-08-25T17:22:08.991Z,98628.66
2022-08-25T17:24:42.026Z,98635.63
2022-08-25T17:27:14.173Z,98633.53
2022-08-25T17:29:45.180Z,98627.88
2022-08-25T17:32:14.920Z,98639.59
2022-08-25T17:34:44.645Z,98640.00
2022-08-25T17:37:15.495Z,98634.25
2022-08-25T17:39:45.604Z,98648.00
2022-08-25T17:42:14.246Z,98642.91
2022-08-25T17:44:45.118Z,98632.97
2022-08-25T17:47:16.620Z,98635.81
2022-08-25T17:49:46.211Z,98624.94
2022-08-25T17:52:14.896Z,98628.56
2022-08-25T17:54:50.610Z,98636.88
2022-08-25T17:57:21.306Z,98645.09
2022-08-25T17:59:52.375Z,98645.91
2022-08-25T18:02:21.518Z,98653.00
2022-08-25T18:04:51.633Z,98659.13
2022-08-25T18:07:20.689Z,98662.28
2022-08-25T18:09:54.162Z,98669.91
2022-08-25T18:12:23.223Z,98668.66
2022-08-25T18:14:58.925Z,98672.38
2022-08-25T18:17:30.121Z,98665.41
2022-08-25T18:19:59.919Z,98669.53
2022-08-25T18:22:28.167Z,98668.13
2022-08-25T18:24:56.917Z,98688.69
2022-08-25T18:27:25.217Z,98674.69
2022-08-25T18:29:54.477Z,98677.94
2022-08-25T18:32:26.092Z,98669.22
2022-08-25T18:34:55.747Z,98672.91
2022-08-25T18:37:39.338Z,98669.13
2022-08-25T18:40:24.258Z,98676.44
2022-08-25T18:42:53.702Z,98674.22
2022-08-25T18:45:25.324Z,98679.03
2022-08-25T18:47:57.526Z,98675.22
2022-08-25T18:50:26.665Z,98672.22
2022-08-25T18:52:57.029Z,98677.84
2022-08-25T18:55:25.669Z,98670.09
2022-08-25T18:57:56.981Z,98681.53
2022-08-25T19:00:31.861Z,98683.69
2022-08-25T19:03:01.247Z,98692.81
2022-08-25T19:05:33.106Z,98691.78
2022-08-25T19:08:05.617Z,98695.31
2022-08-25T19:10:35.806Z,98688.75
2022-08-25T19:13:07.895Z,98686.44
2022-08-25T19:15:40.856Z,98694.34
2022-08-25T19:18:17.325Z,98692.81
2022-08-25T19:20:46.191Z,98694.53
2022-08-25T19:23:16.557Z,98702.75
2022-08-25T19:25:44.965Z,98689.91
2022-08-25T19:28:19.123Z,98688.41
2022-08-25T19:30:49.901Z,98690.44
2022-08-25T19:33:42.750Z,98694.00
2022-08-25T19:36:11.136Z,98694.06
2022-08-25T19:38:41.186Z,98685.97
2022-08-25T19:41:14.041Z,98680.56
2022-08-25T19:43:55.150Z,98688.91
2022-08-25T19:46:33.426Z,98697.53
2022-08-25T19:49:07.733Z,98690.63
2022-08-25T19:51:37.452Z,98686.38
2022-08-25T19:54:09.009Z,98707.97
2022-08-25T19:56:53.627Z,98687.72
2022-08-25T19:59:23.025Z,98690.09
2022-08-25T20:01:54.277Z,98690.94
2022-08-25T20:04:24.488Z,98704.38
2022-08-25T20:06:53.294Z,98698.91
2022-08-25T20:09:39.114Z,98719.38
2022-08-25T20:12:10.772Z,98710.03
2022-08-25T20:14:40.090Z,98714.75
2022-08-25T20:17:23.265Z,98728.50
2022-08-25T20:19:54.519Z,98709.69
2022-08-25T20:22:26.299Z,98739.13
2022-08-25T20:24:59.738Z,98727.00
2022-08-25T20:27:32.568Z,98745.03
2022-08-25T20:30:05.381Z,98732.97
2022-08-25T20:32:34.970Z,98736.13
2022-08-25T20:35:13.141Z,98747.94
2022-08-25T20:37:41.781Z,98741.72
2022-08-25T20:40:14.547Z,98745.31
2022-08-25T20:42:44.453Z,98741.03
2022-08-25T20:45:14.760Z,98733.19
2022-08-25T20:47:44.435Z,98737.53
2022-08-25T20:50:15.879Z,98720.75
2022-08-25T20:52:44.389Z,98714.91
2022-08-25T20:55:18.927Z,98718.47
2022-08-25T20:57:50.642Z,98716.91
2022-08-25T21:00:20.039Z,98725.53
2022-08-25T21:02:53.044Z,98734.16
2022-08-25T21:05:21.658Z,98737.72
2022-08-25T21:07:52.844Z,98720.84
2022-08-25T21:10:22.735Z,98734.16
2022-08-25T21:12:53.464Z,98743.56
2022-08-25T21:15:22.347Z,98728.28
2022-08-25T21:17:55.648Z,98741.63
2022-08-25T21:20:25.399Z,98733.41
2022-08-25T21:22:57.572Z,98720.88
2022-08-25T21:25:27.371Z,98733.81
2022-08-25T21:27:58.259Z,98731.84
2022-08-25T21:30:26.603Z,98713.41
2022-08-25T21:32:56.924Z,98734.16
2022-08-25T21:35:26.889Z,98707.91
2022-08-25T21:37:55.130Z,98714.56
2022-08-25T21:40:24.620Z,98707.91
2022-08-25T21:42:57.262Z,98705.94
2022-08-25T21:45:26.054Z,98712.63
2022-08-25T21:47:54.525Z,98712.59
2022-08-25T21:50:25.874Z,98740.44
2022-08-25T21:52:59.008Z,98722.81
2022-08-25T21:55:29.902Z,98719.28
2022-08-25T21:58:00.023Z,98714.16
2022-08-25T22:00:28.351Z,98728.66
2022-08-25T22:02:56.702Z,98724.75
2022-08-25T22:05:24.932Z,98727.84
2022-08-25T22:07:53.289Z,98718.44
2022-08-25T22:10:21.952Z,98736.88
2022-08-25T22:12:54.633Z,98722.31
2022-08-25T22:15:25.787Z,98735.63
2022-08-25T22:17:56.698Z,98736.38
2022-08-25T22:20:28.919Z,98722.25
2022-08-25T22:23:00.492Z,98717.94
2022-08-25T22:25:31.840Z,98728.09
2022-08-25T22:28:02.925Z,98741.06
2022-08-25T22:30:32.859Z,98716.31
2022-08-25T22:33:01.602Z,98729.28
2022-08-25T22:35:35.849Z,98721.78
2022-08-25T22:38:05.151Z,98715.91
2022-08-25T22:40:36.786Z,98722.16
2022-08-25T22:43:09.184Z,98709.25
2022-08-25T22:45:40.683Z,98704.53
2022-08-25T22:48:11.864Z,98707.28
2022-08-25T22:50:40.073Z,98725.69
2022-08-25T22:53:11.513Z,98708.81
2022-08-25T22:55:44.148Z,98710.38
2022-08-25T22:58:12.819Z,98697.84
2022-08-25T23:00:45.353Z,98704.50
2022-08-25T23:03:14.993Z,98709.22
2022-08-25T23:05:43.437Z,98696.22
2022-08-25T23:08:16.032Z,98710.75
2022-08-25T23:11:06.989Z,98698.16
2022-08-25T23:13:38.627Z,98702.03
2022-08-25T23:16:13.327Z,98703.91
2022-08-25T23:18:44.848Z,98715.72
2022-08-25T23:21:35.201Z,98708.59
2022-08-25T23:24:10.753Z,98699.91
2022-08-25T23:26:45.205Z,98695.19
2022-08-25T23:29:19.123Z,98699.09
2022-08-25T23:31:50.772Z,98695.94
2022-08-25T23:34:19.868Z,98701.06
2022-08-25T23:36:48.265Z,98713.59
2022-08-25T23:39:16.677Z,98710.41
2022-08-25T23:41:45.192Z,98705.28
2022-08-25T23:44:17.502Z,98697.47
2022-08-25T23:46:51.655Z,98700.97
2022-08-25T23:49:22.434Z,98706.00
2022-08-25T23:51:56.705Z,98702.44
2022-08-25T23:54:31.470Z,98726.38
2022-08-25T23:57:03.210Z,98721.25
2022-08-25T23:59:40.962Z,98710.28
